createdAt,value
2022-10-19T00:02:11.473Z,3.88
2022-10-19T00:04:38.207Z,4.30
2022-10-19T00:07:04.836Z,3.40
2022-10-19T00:09:31.496Z,1.65
2022-10-19T00:11:58.195Z,1.67
2022-10-19T00:14:25.198Z,1.50
2022-10-19T00:16:53.183Z,1.40
2022-10-19T00:19:24.178Z,1.52
2022-10-19T00:24:22.510Z,1.40
2022-10-19T00:26:49.382Z,1.50
2022-10-19T00:29:16.308Z,1.20
2022-10-19T00:31:43.256Z,1.23
2022-10-19T00:34:10.001Z,1.20
2022-10-19T00:36:39.451Z,1.25
2022-10-19T00:39:10.634Z,1.30
2022-10-19T00:41:38.497Z,1.20
2022-10-19T00:44:12.691Z,1.40
2022-10-19T00:46:42.039Z,1.40
2022-10-19T00:49:21.828Z,1.20
2022-10-19T00:52:04.393Z,1.30
2022-10-19T00:54:36.320Z,1.40
2022-10-19T00:57:05.215Z,1.10
2022-10-19T00:59:32.737Z,1.20
2022-10-19T01:02:02.598Z,1.30
2022-10-19T01:04:30.703Z,1.30
2022-10-19T01:06:58.299Z,1.40
2022-10-19T01:09:25.008Z,1.00
2022-10-19T01:12:25.225Z,1.30
2022-10-19T01:15:03.140Z,1.30
2022-10-19T01:17:42.000Z,1.20
2022-10-19T01:20:30.215Z,1.20
2022-10-19T01:23:17.899Z,1.25
2022-10-19T01:25:50.358Z,1.27
2022-10-19T01:28:35.809Z,1.23
2022-10-19T01:31:15.414Z,1.02
2022-10-19T01:33:53.583Z,1.30
2022-10-19T01:36:32.808Z,1.10
2022-10-19T01:39:26.594Z,1.33
2022-10-19T01:42:03.854Z,1.23
2022-10-19T01:45:11.386Z,1.27
2022-10-19T01:47:50.794Z,1.10
2022-10-19T01:50:31.505Z,1.13
2022-10-19T01:52:59.275Z,1.13
2022-10-19T01:55:27.704Z,1.05
2022-10-19T01:58:01.575Z,1.13
2022-10-19T02:00:31.797Z,1.20
2022-10-19T02:05:31.555Z,1.10
2022-10-19T02:08:01.168Z,1.20
2022-10-19T02:10:29.864Z,1.20
2022-10-19T02:12:58.267Z,1.10
2022-10-19T02:15:28.166Z,1.20
2022-10-19T02:17:59.729Z,0.93
2022-10-19T02:20:28.133Z,0.90
2022-10-19T02:22:54.953Z,1.00
2022-10-19T02:25:22.247Z,1.20
2022-10-19T02:27:49.638Z,1.25
2022-10-19T02:30:19.318Z,1.10
2022-10-19T02:32:46.026Z,1.20
2022-10-19T02:35:14.725Z,0.98
2022-10-19T02:37:41.982Z,1.30
2022-10-19T02:40:10.108Z,1.13
2022-10-19T02:43:04.008Z,0.90
2022-10-19T02:45:42.896Z,1.08
2022-10-19T02:48:19.936Z,1.10
2022-10-19T02:50:51.968Z,1.10
2022-10-19T02:53:18.772Z,1.00
2022-10-19T02:55:49.029Z,1.20
2022-10-19T02:58:16.196Z,1.20
2022-10-19T03:00:43.076Z,1.13
2022-10-19T03:03:10.313Z,1.02
2022-10-19T03:05:37.025Z,1.13
2022-10-19T03:08:03.785Z,1.30
2022-10-19T03:10:30.398Z,1.10
2022-10-19T03:12:58.574Z,1.50
2022-10-19T03:15:28.986Z,3.78
2022-10-19T03:17:56.521Z,2.50
2022-10-19T03:20:23.340Z,2.30
2022-10-19T03:22:50.548Z,2.13
2022-10-19T03:25:17.160Z,2.00
2022-10-19T03:27:43.855Z,2.70
2022-10-19T03:30:11.058Z,2.17
2022-10-19T03:32:37.650Z,3.55
2022-10-19T03:35:04.819Z,1.70
2022-10-19T03:37:31.549Z,2.05
2022-10-19T03:39:58.296Z,3.30
2022-10-19T03:42:24.910Z,1.60
2022-10-19T03:44:51.488Z,1.25
2022-10-19T03:47:18.078Z,1.30
2022-10-19T03:49:44.757Z,1.52
2022-10-19T03:52:11.528Z,1.55
2022-10-19T03:54:38.216Z,1.73
2022-10-19T03:57:05.432Z,1.92
2022-10-19T03:59:32.270Z,1.55
2022-10-19T04:01:58.956Z,1.42
2022-10-19T04:04:25.631Z,1.50
2022-10-19T04:06:53.852Z,1.60
2022-10-19T04:09:22.032Z,1.90
2022-10-19T04:11:49.683Z,2.38
2022-10-19T04:14:27.092Z,5.68
2022-10-19T04:17:03.113Z,4.70
2022-10-19T04:19:29.907Z,4.15
2022-10-19T04:21:56.887Z,4.72
2022-10-19T04:24:23.840Z,5.65
2022-10-19T04:26:52.933Z,5.00
2022-10-19T04:29:22.781Z,5.35
2022-10-19T04:31:53.403Z,5.25
2022-10-19T04:34:20.242Z,6.22
2022-10-19T04:36:46.912Z,4.88
2022-10-19T04:39:13.891Z,5.72
2022-10-19T04:41:40.456Z,3.25
2022-10-19T04:44:07.415Z,2.00
2022-10-19T04:46:34.531Z,2.03
2022-10-19T04:49:01.488Z,1.75
2022-10-19T04:51:28.222Z,1.73
2022-10-19T04:53:59.526Z,1.75
2022-10-19T04:56:27.463Z,1.40
2022-10-19T04:58:56.512Z,1.40
2022-10-19T05:01:24.458Z,1.45
2022-10-19T05:03:59.298Z,1.20
2022-10-19T05:06:26.476Z,1.33
2022-10-19T05:08:53.304Z,1.30
2022-10-19T05:11:20.409Z,1.35
2022-10-19T05:13:47.480Z,1.30
2022-10-19T05:16:16.660Z,2.33
2022-10-19T05:18:46.767Z,2.63
2022-10-19T05:23:41.770Z,1.45
2022-10-19T05:26:11.192Z,1.35
2022-10-19T05:28:38.231Z,1.20
2022-10-19T05:31:14.147Z,1.58
2022-10-19T05:33:41.555Z,1.70
2022-10-19T05:36:26.103Z,1.50
2022-10-19T05:38:54.660Z,1.90
2022-10-19T05:41:22.311Z,1.52
2022-10-19T05:43:54.265Z,4.03
2022-10-19T05:46:21.119Z,3.03
2022-10-19T05:48:47.993Z,2.10
2022-10-19T05:51:17.374Z,1.40
2022-10-19T05:53:44.611Z,1.98
2022-10-19T05:56:25.376Z,1.40
2022-10-19T05:58:52.572Z,1.55
2022-10-19T06:01:20.298Z,1.33
2022-10-19T06:03:47.895Z,1.00
2022-10-19T06:06:14.780Z,1.10
2022-10-19T06:08:41.492Z,1.00
2022-10-19T06:11:10.068Z,0.95
2022-10-19T06:13:37.302Z,1.30
2022-10-19T06:16:05.161Z,1.33
2022-10-19T06:18:31.767Z,1.60
2022-10-19T06:21:03.853Z,1.13
2022-10-19T06:23:31.337Z,0.98
2022-10-19T06:25:58.244Z,1.00
2022-10-19T06:28:25.111Z,0.85
2022-10-19T06:30:51.631Z,0.70
2022-10-19T06:33:18.421Z,0.80
2022-10-19T06:35:45.039Z,1.02
2022-10-19T06:38:13.799Z,0.90
2022-10-19T06:40:40.434Z,0.95
2022-10-19T06:43:07.064Z,0.80
2022-10-19T06:45:36.040Z,0.73
2022-10-19T06:48:06.626Z,0.90
2022-10-19T06:50:35.396Z,1.10
2022-10-19T06:53:02.094Z,1.00
2022-10-19T06:55:28.735Z,1.20
2022-10-19T06:57:58.536Z,0.90
2022-10-19T07:00:25.088Z,1.55
2022-10-19T07:02:51.666Z,0.90
2022-10-19T07:05:18.479Z,0.77
2022-10-19T07:07:45.627Z,1.00
2022-10-19T07:10:12.584Z,0.80
2022-10-19T07:12:39.258Z,0.80
2022-10-19T07:15:06.418Z,0.70
2022-10-19T07:17:33.248Z,0.75
2022-10-19T07:20:00.166Z,0.80
2022-10-19T07:22:28.229Z,0.60
2022-10-19T07:24:55.071Z,0.60
2022-10-19T07:27:21.791Z,0.60
2022-10-19T07:29:48.463Z,0.75
2022-10-19T07:32:15.073Z,0.75
2022-10-19T07:34:41.694Z,0.70
2022-10-19T07:37:08.331Z,0.60
2022-10-19T07:39:35.089Z,0.60
2022-10-19T07:42:01.705Z,0.50
2022-10-19T07:44:28.427Z,0.63
2022-10-19T07:46:54.985Z,1.00
2022-10-19T07:49:21.888Z,0.85
2022-10-19T07:51:48.579Z,0.60
2022-10-19T07:54:15.319Z,0.70
2022-10-19T07:56:41.977Z,0.77
2022-10-19T07:59:09.906Z,0.63
2022-10-19T08:01:41.554Z,0.55
2022-10-19T08:06:55.246Z,0.77
2022-10-19T08:12:13.797Z,1.20
2022-10-19T08:14:41.750Z,1.50
2022-10-19T08:17:11.753Z,0.70
2022-10-19T08:19:43.208Z,1.13
2022-10-19T08:22:10.447Z,0.98
2022-10-19T08:24:37.154Z,1.10
2022-10-19T08:27:03.959Z,1.00
2022-10-19T08:29:31.725Z,0.50
2022-10-19T08:31:59.612Z,0.60
2022-10-19T08:34:26.419Z,0.30
2022-10-19T08:36:54.063Z,0.15
2022-10-19T08:39:20.628Z,0.20
2022-10-19T08:41:58.456Z,0.52
2022-10-19T08:44:43.690Z,0.60
2022-10-19T08:47:13.832Z,0.40
2022-10-19T08:49:41.819Z,0.50
2022-10-19T08:52:19.652Z,0.30
2022-10-19T08:54:58.895Z,0.50
2022-10-19T08:57:33.741Z,0.30
2022-10-19T09:00:21.961Z,0.30
2022-10-19T09:02:58.039Z,0.30
2022-10-19T09:05:54.239Z,0.40
2022-10-19T09:08:21.405Z,0.47
2022-10-19T09:10:52.465Z,0.30
2022-10-19T09:13:29.251Z,0.47
2022-10-19T09:16:04.663Z,0.40
2022-10-19T09:18:37.171Z,0.40
2022-10-19T09:21:12.291Z,0.47
2022-10-19T09:23:47.207Z,0.68
2022-10-19T09:26:17.895Z,1.05
2022-10-19T09:29:06.649Z,0.80
2022-10-19T09:31:40.730Z,0.50
2022-10-19T09:34:20.788Z,0.73
2022-10-19T09:36:52.484Z,0.30
2022-10-19T09:39:20.197Z,0.55
2022-10-19T09:41:51.765Z,0.80
2022-10-19T09:44:19.091Z,1.00
2022-10-19T09:47:23.143Z,1.00
2022-10-19T09:49:50.139Z,0.20
2022-10-19T09:52:32.815Z,0.20
2022-10-19T09:55:06.103Z,0.10
2022-10-19T09:57:33.131Z,0.30
2022-10-19T10:00:00.097Z,0.10
2022-10-19T10:02:32.671Z,0.10
2022-10-19T10:05:14.100Z,0.17
2022-10-19T10:07:41.168Z,0.20
2022-10-19T10:10:30.457Z,0.10
2022-10-19T10:13:00.962Z,0.10
2022-10-19T10:15:30.863Z,0.10
2022-10-19T10:17:58.478Z,0.10
2022-10-19T10:20:35.728Z,0.10
2022-10-19T10:23:06.345Z,0.10
2022-10-19T10:25:36.231Z,0.13
2022-10-19T10:28:20.036Z,0.20
2022-10-19T10:30:48.872Z,0.20
2022-10-19T10:33:27.223Z,0.20
2022-10-19T10:36:11.331Z,0.35
2022-10-19T10:38:45.971Z,0.40
2022-10-19T10:41:17.642Z,1.00
2022-10-19T10:44:04.922Z,0.35
2022-10-19T10:46:42.668Z,0.40
2022-10-19T10:49:19.935Z,0.25
2022-10-19T10:51:53.041Z,0.30
2022-10-19T10:54:25.698Z,0.20
2022-10-19T10:57:16.536Z,0.20
2022-10-19T10:59:59.411Z,0.10
2022-10-19T11:02:50.895Z,0.20
2022-10-19T11:05:23.753Z,0.20
2022-10-19T11:08:01.057Z,0.20
2022-10-19T11:10:33.153Z,0.10
2022-10-19T11:13:24.166Z,0.20
2022-10-19T11:15:58.925Z,0.20
2022-10-19T11:18:30.172Z,0.20
2022-10-19T11:21:22.870Z,0.20
2022-10-19T11:24:05.873Z,0.20
2022-10-19T11:26:49.673Z,0.20
2022-10-19T11:29:33.633Z,0.22
2022-10-19T11:32:00.489Z,0.20
2022-10-19T11:34:43.990Z,0.20
2022-10-19T11:37:49.920Z,0.10
2022-10-19T11:41:16.959Z,0.10
2022-10-19T11:43:49.283Z,0.20
2022-10-19T11:46:42.123Z,0.10
2022-10-19T11:49:20.189Z,0.10
2022-10-19T11:51:57.549Z,0.10
2022-10-19T11:54:33.114Z,0.10
2022-10-19T11:57:11.600Z,0.10
2022-10-19T12:00:08.282Z,8.02
2022-10-19T12:03:15.671Z,0.20
2022-10-19T12:06:18.002Z,0.20
2022-10-19T12:08:49.107Z,0.10
2022-10-19T12:11:55.386Z,0.17
2022-10-19T12:14:30.141Z,0.20
2022-10-19T12:17:02.569Z,0.15
2022-10-19T12:19:36.062Z,0.20
2022-10-19T12:22:06.241Z,0.30
2022-10-19T12:24:34.420Z,0.20
2022-10-19T12:27:02.164Z,0.20
2022-10-19T12:29:36.311Z,0.30
2022-10-19T12:32:05.799Z,0.20
2022-10-19T12:34:59.186Z,0.50
2022-10-19T12:37:41.622Z,0.60
2022-10-19T12:40:27.716Z,0.20
2022-10-19T12:43:07.826Z,0.20
2022-10-19T12:45:40.383Z,0.10
2022-10-19T12:48:15.709Z,0.10
2022-10-19T12:50:48.601Z,0.30
2022-10-19T12:53:30.880Z,0.30
2022-10-19T12:56:06.731Z,0.10
2022-10-19T12:58:47.618Z,0.20
2022-10-19T13:01:23.249Z,0.20
2022-10-19T13:04:10.866Z,0.55
2022-10-19T13:06:43.707Z,1.10
2022-10-19T13:09:29.964Z,1.00
2022-10-19T13:12:21.866Z,1.00
2022-10-19T13:14:51.487Z,0.98
2022-10-19T13:17:37.060Z,0.65
2022-10-19T13:20:15.731Z,0.93
2022-10-19T13:22:48.957Z,0.40
2022-10-19T13:25:29.562Z,0.22
2022-10-19T13:28:28.185Z,0.30
2022-10-19T13:31:00.497Z,0.20
2022-10-19T13:33:32.757Z,0.20
2022-10-19T13:35:59.745Z,0.20
2022-10-19T13:38:55.890Z,0.25
2022-10-19T13:41:26.344Z,1.02
2022-10-19T13:44:18.249Z,0.50
2022-10-19T13:46:59.968Z,0.10
2022-10-19T13:49:48.069Z,0.20
2022-10-19T13:52:42.528Z,0.20
2022-10-19T13:55:22.783Z,0.20
2022-10-19T13:58:14.118Z,0.20
2022-10-19T14:01:13.142Z,0.20
2022-10-19T14:03:57.941Z,0.25
2022-10-19T14:06:32.671Z,0.20
2022-10-19T14:09:17.535Z,0.38
2022-10-19T14:11:48.439Z,0.25
2022-10-19T14:14:25.181Z,0.20
2022-10-19T14:17:04.459Z,0.20
2022-10-19T14:19:51.427Z,0.20
2022-10-19T14:22:25.998Z,0.20
2022-10-19T14:24:59.652Z,0.20
2022-10-19T14:27:26.589Z,0.17
2022-10-19T14:29:54.764Z,0.20
2022-10-19T14:32:26.144Z,0.20
2022-10-19T14:34:53.916Z,0.20
2022-10-19T14:37:23.961Z,0.10
2022-10-19T14:39:59.465Z,0.20
2022-10-19T14:42:36.913Z,0.20
2022-10-19T14:45:04.300Z,0.20
2022-10-19T14:47:31.029Z,0.20
2022-10-19T14:49:57.712Z,0.20
2022-10-19T14:52:43.074Z,0.30
2022-10-19T14:55:17.862Z,0.40
2022-10-19T14:57:49.145Z,0.10
2022-10-19T15:00:24.047Z,0.28
2022-10-19T15:03:01.412Z,0.30
2022-10-19T15:05:35.707Z,0.20
2022-10-19T15:08:15.172Z,0.10
2022-10-19T15:10:45.817Z,0.20
2022-10-19T15:13:28.959Z,0.20
2022-10-19T15:15:56.078Z,0.20
2022-10-19T15:18:47.470Z,0.30
2022-10-19T15:21:18.499Z,0.22
2022-10-19T15:23:52.565Z,0.25
2022-10-19T15:26:24.981Z,0.22
2022-10-19T15:28:54.723Z,0.40
2022-10-19T15:31:25.529Z,0.20
2022-10-19T15:34:00.759Z,0.20
2022-10-19T15:36:30.048Z,0.20
2022-10-19T15:39:18.149Z,0.28
2022-10-19T15:41:51.620Z,0.30
2022-10-19T15:44:42.165Z,0.30
2022-10-19T15:47:14.932Z,0.30
2022-10-19T15:49:41.637Z,0.30
2022-10-19T15:52:20.349Z,0.20
2022-10-19T15:54:48.110Z,0.28
2022-10-19T15:57:40.842Z,0.40
2022-10-19T16:00:17.473Z,0.20
2022-10-19T16:02:44.582Z,0.32
2022-10-19T16:05:11.568Z,0.20
2022-10-19T16:07:40.387Z,0.25
2022-10-19T16:10:08.735Z,0.20
2022-10-19T16:12:35.379Z,0.30
2022-10-19T16:15:02.005Z,0.30
2022-10-19T16:17:30.321Z,0.30
2022-10-19T16:19:56.968Z,0.22
2022-10-19T16:22:23.744Z,0.25
2022-10-19T16:24:50.456Z,0.20
2022-10-19T16:27:17.173Z,0.20
2022-10-19T16:29:44.561Z,0.20
2022-10-19T16:32:11.481Z,0.30
2022-10-19T16:34:38.188Z,0.30
2022-10-19T16:37:06.904Z,0.40
2022-10-19T16:39:35.005Z,0.45
2022-10-19T16:42:01.684Z,0.35
2022-10-19T16:44:28.353Z,0.32
2022-10-19T16:46:58.734Z,0.40
2022-10-19T16:51:56.274Z,0.55
2022-10-19T16:54:26.478Z,0.30
2022-10-19T16:56:53.209Z,0.35
2022-10-19T16:59:20.010Z,0.40
2022-10-19T17:01:47.533Z,0.40
2022-10-19T17:04:17.419Z,0.40
2022-10-19T17:06:45.333Z,0.43
2022-10-19T17:11:59.015Z,0.40
2022-10-19T17:14:25.794Z,0.70
2022-10-19T17:16:52.810Z,0.22
2022-10-19T17:19:19.448Z,0.30
2022-10-19T17:21:46.524Z,0.30
2022-10-19T17:24:21.095Z,0.25
2022-10-19T17:26:50.838Z,0.30
2022-10-19T17:29:18.069Z,0.30
2022-10-19T17:31:47.102Z,0.20
2022-10-19T17:34:14.125Z,0.30
2022-10-19T17:36:44.760Z,0.30
2022-10-19T17:39:14.732Z,0.30
2022-10-19T17:41:41.693Z,0.15
2022-10-19T17:44:08.301Z,0.30
2022-10-19T17:46:35.364Z,0.40
2022-10-19T17:49:02.769Z,0.32
2022-10-19T17:51:31.527Z,0.30
2022-10-19T17:54:04.541Z,0.20
2022-10-19T17:56:32.210Z,0.25
2022-10-19T17:58:59.211Z,0.30
2022-10-19T18:01:26.614Z,0.28
2022-10-19T18:03:54.063Z,0.20
2022-10-19T18:06:23.937Z,0.20
2022-10-19T18:08:55.734Z,0.30
2022-10-19T18:11:27.953Z,0.20
2022-10-19T18:13:57.371Z,0.30
2022-10-19T18:16:27.405Z,0.37
2022-10-19T18:18:56.516Z,0.30
2022-10-19T18:21:26.583Z,0.28
2022-10-19T18:23:56.466Z,0.20
2022-10-19T18:26:25.222Z,0.20
2022-10-19T18:28:53.397Z,0.30
2022-10-19T18:31:22.621Z,0.28
2022-10-19T18:33:54.968Z,0.25
2022-10-19T18:36:21.728Z,0.20
2022-10-19T18:38:56.744Z,0.20
2022-10-19T18:41:24.080Z,0.20
2022-10-19T18:43:52.982Z,0.25
2022-10-19T18:46:21.256Z,0.20
2022-10-19T18:48:48.301Z,0.25
2022-10-19T18:51:15.881Z,0.25
2022-10-19T18:53:43.107Z,0.20
2022-10-19T18:56:11.895Z,0.20
2022-10-19T18:58:39.500Z,0.20
2022-10-19T19:01:18.134Z,0.30
2022-10-19T19:03:49.852Z,0.30
2022-10-19T19:06:22.494Z,0.25
2022-10-19T19:08:49.801Z,0.20
2022-10-19T19:11:19.152Z,0.20
2022-10-19T19:13:52.428Z,0.20
2022-10-19T19:16:19.499Z,0.20
2022-10-19T19:18:46.461Z,0.20
2022-10-19T19:21:36.344Z,0.25
2022-10-19T19:24:05.933Z,0.20
2022-10-19T19:26:37.701Z,0.30
2022-10-19T19:29:04.580Z,0.20
2022-10-19T19:31:31.334Z,0.30
2022-10-19T19:34:01.148Z,0.20
2022-10-19T19:36:28.235Z,0.30
2022-10-19T19:38:59.760Z,0.20
2022-10-19T19:41:29.011Z,0.40
2022-10-19T19:43:57.909Z,0.50
2022-10-19T19:46:25.867Z,0.20
2022-10-19T19:49:01.080Z,0.30
2022-10-19T19:51:28.930Z,0.22
2022-10-19T19:53:56.026Z,0.20
2022-10-19T19:56:22.695Z,0.30
2022-10-19T19:58:54.304Z,0.30
2022-10-19T20:01:22.299Z,0.30
2022-10-19T20:03:55.576Z,0.30
2022-10-19T20:06:25.793Z,0.30
2022-10-19T20:11:20.254Z,0.30
2022-10-19T20:13:46.943Z,0.30
2022-10-19T20:16:16.663Z,0.20
2022-10-19T20:18:51.905Z,0.22
2022-10-19T20:21:23.376Z,0.20
2022-10-19T20:23:50.071Z,0.20
2022-10-19T20:26:22.003Z,0.20
2022-10-19T20:28:50.583Z,0.20
2022-10-19T20:31:18.329Z,0.20
2022-10-19T20:33:47.273Z,0.20
2022-10-19T20:36:22.994Z,0.10
2022-10-19T20:38:51.902Z,0.30
2022-10-19T20:41:20.442Z,0.10
2022-10-19T20:43:47.441Z,0.20
2022-10-19T20:46:25.919Z,0.10
2022-10-19T20:48:54.706Z,0.20
2022-10-19T20:51:30.825Z,0.20
2022-10-19T20:54:01.013Z,0.20
2022-10-19T20:56:30.000Z,0.10
2022-10-19T21:01:35.103Z,0.20
2022-10-19T21:04:04.646Z,0.20
2022-10-19T21:06:33.271Z,0.20
2022-10-19T21:09:00.357Z,0.20
2022-10-19T21:11:29.993Z,0.20
2022-10-19T21:13:59.090Z,0.20
2022-10-19T21:16:27.595Z,0.20
2022-10-19T21:18:54.246Z,0.20
2022-10-19T21:21:24.391Z,0.30
2022-10-19T21:23:54.783Z,0.20
2022-10-19T21:28:50.670Z,0.20
2022-10-19T21:31:17.826Z,0.22
2022-10-19T21:33:45.074Z,0.40
2022-10-19T21:36:12.993Z,0.22
2022-10-19T21:38:40.098Z,0.20
2022-10-19T21:41:11.636Z,0.20
2022-10-19T21:43:38.517Z,0.20
2022-10-19T21:46:07.460Z,0.30
2022-10-19T21:48:34.556Z,0.25
2022-10-19T21:51:17.818Z,0.20
2022-10-19T21:53:44.566Z,0.30
2022-10-19T21:56:11.336Z,0.30
2022-10-19T21:58:38.137Z,0.20
2022-10-19T22:01:08.622Z,0.30
2022-10-19T22:03:35.216Z,0.28
2022-10-19T22:06:01.945Z,0.10
2022-10-19T22:08:29.051Z,0.30
2022-10-19T22:10:56.053Z,0.30
2022-10-19T22:13:22.941Z,0.20
2022-10-19T22:15:49.901Z,0.20
2022-10-19T22:18:16.997Z,0.20
2022-10-19T22:20:43.579Z,0.20
2022-10-19T22:23:10.290Z,0.20
2022-10-19T22:25:36.964Z,0.17
2022-10-19T22:28:03.705Z,0.20
2022-10-19T22:30:30.406Z,0.20
2022-10-19T22:32:57.145Z,0.20
2022-10-19T22:35:23.762Z,0.20
2022-10-19T22:37:50.489Z,0.20
2022-10-19T22:40:17.186Z,0.20
2022-10-19T22:42:43.839Z,0.10
2022-10-19T22:45:10.501Z,0.10
2022-10-19T22:47:37.203Z,0.13
2022-10-19T22:50:04.363Z,0.25
2022-10-19T22:52:31.593Z,0.13
2022-10-19T22:54:58.612Z,0.20
2022-10-19T22:57:25.267Z,0.20
2022-10-19T22:59:52.087Z,0.10
2022-10-19T23:02:19.361Z,0.10
2022-10-19T23:04:46.051Z,0.10
2022-10-19T23:07:12.819Z,0.10
2022-10-19T23:09:39.605Z,0.10
2022-10-19T23:12:06.273Z,0.20
2022-10-19T23:14:32.951Z,0.20
2022-10-19T23:16:59.657Z,0.10
2022-10-19T23:19:26.742Z,0.10
2022-10-19T23:21:53.433Z,0.50
2022-10-19T23:24:20.209Z,0.20
2022-10-19T23:26:46.945Z,0.10
2022-10-19T23:29:14.762Z,0.15
2022-10-19T23:31:41.406Z,0.10
2022-10-19T23:34:08.184Z,0.15
2022-10-19T23:36:34.950Z,0.15
2022-10-19T23:39:01.655Z,0.20
2022-10-19T23:41:28.343Z,0.10
2022-10-19T23:43:55.135Z,0.20
2022-10-19T23:46:21.771Z,0.10
2022-10-19T23:48:48.588Z,0.20
2022-10-19T23:51:17.912Z,0.10
2022-10-19T23:53:46.578Z,0.10
2022-10-19T23:56:21.765Z,0.10
2022-10-19T23:58:49.057Z,0.13
